sensor_id;sensor_type;location;lat;lon;timestamp;P1;durP1;ratioP1;P2;durP2;ratioP2
12348;SDS011;5974;42.710;27.258;2023-04-25T00:01:54;9.60;;;5.50;;
12348;SDS011;5974;42.710;27.258;2023-04-25T00:04:21;7.07;;;6.37;;
12348;SDS011;5974;42.710;27.258;2023-04-25T00:06:48;8.47;;;5.83;;
12348;SDS011;5974;42.710;27.258;2023-04-25T00:09:17;8.77;;;6.73;;
12348;SDS011;5974;42.710;27.258;2023-04-25T00:11:43;9.20;;;6.17;;
12348;SDS011;5974;42.710;27.258;2023-04-25T00:14:10;6.33;;;5.67;;
12348;SDS011;5974;42.710;27.258;2023-04-25T00:16:38;7.63;;;6.20;;
12348;SDS011;5974;42.710;27.258;2023-04-25T00:19:06;6.33;;;5.73;;
12348;SDS011;5974;42.710;27.258;2023-04-25T00:21:33;6.60;;;5.73;;
12348;SDS011;5974;42.710;27.258;2023-04-25T00:24:00;8.07;;;5.90;;
12348;SDS011;5974;42.710;27.258;2023-04-25T00:26:28;6.83;;;6.00;;
12348;SDS011;5974;42.710;27.258;2023-04-25T00:28:56;7.23;;;5.80;;
12348;SDS011;5974;42.710;27.258;2023-04-25T00:31:23;6.40;;;5.67;;
12348;SDS011;5974;42.710;27.258;2023-04-25T00:33:49;9.67;;;5.57;;
12348;SDS011;5974;42.710;27.258;2023-04-25T00:36:16;12.53;;;6.33;;
12348;SDS011;5974;42.710;27.258;2023-04-25T00:38:43;7.20;;;5.70;;
12348;SDS011;5974;42.710;27.258;2023-04-25T00:41:10;7.17;;;5.93;;
12348;SDS011;5974;42.710;27.258;2023-04-25T00:43:39;8.70;;;5.70;;
12348;SDS011;5974;42.710;27.258;2023-04-25T00:46:06;8.17;;;5.60;;
12348;SDS011;5974;42.710;27.258;2023-04-25T00:48:33;6.50;;;5.70;;
12348;SDS011;5974;42.710;27.258;2023-04-25T00:51:00;5.43;;;5.00;;
12348;SDS011;5974;42.710;27.258;2023-04-25T00:53:27;6.60;;;5.70;;
12348;SDS011;5974;42.710;27.258;2023-04-25T00:55:57;6.23;;;5.63;;
12348;SDS011;5974;42.710;27.258;2023-04-25T00:58:24;6.43;;;5.77;;
12348;SDS011;5974;42.710;27.258;2023-04-25T01:00:52;10.03;;;6.13;;
12348;SDS011;5974;42.710;27.258;2023-04-25T01:03:19;8.23;;;5.77;;
12348;SDS011;5974;42.710;27.258;2023-04-25T01:05:47;6.23;;;5.63;;
12348;SDS011;5974;42.710;27.258;2023-04-25T01:08:14;6.30;;;5.60;;
12348;SDS011;5974;42.710;27.258;2023-04-25T01:10:41;6.77;;;5.13;;
12348;SDS011;5974;42.710;27.258;2023-04-25T01:13:07;6.77;;;5.63;;
12348;SDS011;5974;42.710;27.258;2023-04-25T01:15:35;6.77;;;5.67;;
12348;SDS011;5974;42.710;27.258;2023-04-25T01:18:04;6.83;;;5.80;;
12348;SDS011;5974;42.710;27.258;2023-04-25T01:20:32;6.67;;;5.37;;
12348;SDS011;5974;42.710;27.258;2023-04-25T01:23:01;6.87;;;5.73;;
12348;SDS011;5974;42.710;27.258;2023-04-25T01:25:28;6.13;;;5.53;;
12348;SDS011;5974;42.710;27.258;2023-04-25T01:27:56;6.23;;;5.63;;
12348;SDS011;5974;42.710;27.258;2023-04-25T01:30:24;6.53;;;5.60;;
12348;SDS011;5974;42.710;27.258;2023-04-25T01:32:52;7.47;;;5.53;;
12348;SDS011;5974;42.710;27.258;2023-04-25T01:35:21;6.80;;;5.90;;
12348;SDS011;5974;42.710;27.258;2023-04-25T01:37:50;8.63;;;5.70;;
12348;SDS011;5974;42.710;27.258;2023-04-25T01:40:19;5.87;;;5.27;;
12348;SDS011;5974;42.710;27.258;2023-04-25T01:42:47;5.73;;;5.20;;
12348;SDS011;5974;42.710;27.258;2023-04-25T01:45:14;5.80;;;5.20;;
12348;SDS011;5974;42.710;27.258;2023-04-25T01:47:41;6.07;;;5.47;;
12348;SDS011;5974;42.710;27.258;2023-04-25T01:50:12;5.57;;;5.07;;
12348;SDS011;5974;42.710;27.258;2023-04-25T01:52:39;5.53;;;5.00;;
12348;SDS011;5974;42.710;27.258;2023-04-25T01:55:06;6.63;;;5.77;;
12348;SDS011;5974;42.710;27.258;2023-04-25T01:57:35;6.27;;;5.50;;
12348;SDS011;5974;42.710;27.258;2023-04-25T02:00:03;6.43;;;5.80;;
12348;SDS011;5974;42.710;27.258;2023-04-25T02:02:31;6.60;;;6.00;;
12348;SDS011;5974;42.710;27.258;2023-04-25T02:04:58;6.47;;;5.60;;
12348;SDS011;5974;42.710;27.258;2023-04-25T02:07:25;7.77;;;5.60;;
12348;SDS011;5974;42.710;27.258;2023-04-25T02:09:53;5.93;;;5.33;;
12348;SDS011;5974;42.710;27.258;2023-04-25T02:12:20;6.40;;;5.80;;
12348;SDS011;5974;42.710;27.258;2023-04-25T02:14:48;8.50;;;6.60;;
12348;SDS011;5974;42.710;27.258;2023-04-25T02:17:15;6.23;;;5.63;;
12348;SDS011;5974;42.710;27.258;2023-04-25T02:19:42;7.70;;;5.70;;
12348;SDS011;5974;42.710;27.258;2023-04-25T02:22:09;6.03;;;5.43;;
12348;SDS011;5974;42.710;27.258;2023-04-25T02:24:36;11.37;;;6.13;;
12348;SDS011;5974;42.710;27.258;2023-04-25T02:27:03;7.73;;;6.00;;
12348;SDS011;5974;42.710;27.258;2023-04-25T02:29:31;6.80;;;5.80;;
12348;SDS011;5974;42.710;27.258;2023-04-25T02:31:59;6.83;;;6.03;;
12348;SDS011;5974;42.710;27.258;2023-04-25T02:34:26;7.47;;;6.10;;
12348;SDS011;5974;42.710;27.258;2023-04-25T02:36:53;6.97;;;6.13;;
12348;SDS011;5974;42.710;27.258;2023-04-25T02:39:20;8.03;;;6.23;;
12348;SDS011;5974;42.710;27.258;2023-04-25T02:41:47;7.67;;;5.87;;
12348;SDS011;5974;42.710;27.258;2023-04-25T02:44:14;10.90;;;5.60;;
12348;SDS011;5974;42.710;27.258;2023-04-25T02:46:41;8.07;;;6.17;;
12348;SDS011;5974;42.710;27.258;2023-04-25T02:49:09;8.80;;;6.20;;
12348;SDS011;5974;42.710;27.258;2023-04-25T02:51:36;8.40;;;6.70;;
12348;SDS011;5974;42.710;27.258;2023-04-25T02:54:03;6.77;;;6.10;;
12348;SDS011;5974;42.710;27.258;2023-04-25T02:56:30;8.37;;;5.60;;
12348;SDS011;5974;42.710;27.258;2023-04-25T02:58:56;7.63;;;6.83;;
12348;SDS011;5974;42.710;27.258;2023-04-25T03:01:23;8.00;;;5.87;;
12348;SDS011;5974;42.710;27.258;2023-04-25T03:03:50;6.80;;;6.10;;
12348;SDS011;5974;42.710;27.258;2023-04-25T03:06:18;6.70;;;6.10;;
12348;SDS011;5974;42.710;27.258;2023-04-25T03:08:45;6.77;;;5.80;;
12348;SDS011;5974;42.710;27.258;2023-04-25T03:11:12;9.60;;;6.03;;
12348;SDS011;5974;42.710;27.258;2023-04-25T03:13:39;5.70;;;5.20;;
12348;SDS011;5974;42.710;27.258;2023-04-25T03:16:06;9.97;;;5.97;;
12348;SDS011;5974;42.710;27.258;2023-04-25T03:18:32;7.00;;;5.80;;
12348;SDS011;5974;42.710;27.258;2023-04-25T03:20:59;10.03;;;5.80;;
12348;SDS011;5974;42.710;27.258;2023-04-25T03:23:28;8.50;;;5.67;;
12348;SDS011;5974;42.710;27.258;2023-04-25T03:25:55;9.03;;;6.27;;
12348;SDS011;5974;42.710;27.258;2023-04-25T03:28:22;9.73;;;6.97;;
12348;SDS011;5974;42.710;27.258;2023-04-25T03:30:49;7.00;;;6.30;;
12348;SDS011;5974;42.710;27.258;2023-04-25T03:33:15;8.97;;;7.20;;
12348;SDS011;5974;42.710;27.258;2023-04-25T03:35:42;8.10;;;6.77;;
12348;SDS011;5974;42.710;27.258;2023-04-25T03:38:09;7.07;;;6.37;;
12348;SDS011;5974;42.710;27.258;2023-04-25T03:40:37;10.67;;;6.53;;
12348;SDS011;5974;42.710;27.258;2023-04-25T03:43:04;7.63;;;6.80;;
12348;SDS011;5974;42.710;27.258;2023-04-25T03:45:31;8.60;;;6.50;;
12348;SDS011;5974;42.710;27.258;2023-04-25T03:47:58;8.67;;;6.40;;
12348;SDS011;5974;42.710;27.258;2023-04-25T03:50:25;6.80;;;5.77;;
12348;SDS011;5974;42.710;27.258;2023-04-25T03:52:52;8.13;;;5.80;;
12348;SDS011;5974;42.710;27.258;2023-04-25T03:55:19;9.43;;;6.10;;
12348;SDS011;5974;42.710;27.258;2023-04-25T03:57:47;6.83;;;5.50;;
12348;SDS011;5974;42.710;27.258;2023-04-25T04:00:14;7.93;;;5.17;;
12348;SDS011;5974;42.710;27.258;2023-04-25T04:02:41;6.63;;;4.90;;
12348;SDS011;5974;42.710;27.258;2023-04-25T04:05:08;5.03;;;4.60;;
12348;SDS011;5974;42.710;27.258;2023-04-25T04:07:35;7.20;;;5.47;;
12348;SDS011;5974;42.710;27.258;2023-04-25T04:10:05;8.63;;;6.03;;
12348;SDS011;5974;42.710;27.258;2023-04-25T04:12:32;7.43;;;5.23;;
12348;SDS011;5974;42.710;27.258;2023-04-25T04:15:01;6.10;;;5.27;;
12348;SDS011;5974;42.710;27.258;2023-04-25T04:17:28;8.13;;;5.47;;
12348;SDS011;5974;42.710;27.258;2023-04-25T04:19:55;6.80;;;5.70;;
12348;SDS011;5974;42.710;27.258;2023-04-25T04:22:23;5.63;;;5.00;;
12348;SDS011;5974;42.710;27.258;2023-04-25T04:24:50;5.60;;;4.77;;
12348;SDS011;5974;42.710;27.258;2023-04-25T04:27:17;6.17;;;4.80;;
12348;SDS011;5974;42.710;27.258;2023-04-25T04:29:44;7.00;;;4.20;;
12348;SDS011;5974;42.710;27.258;2023-04-25T04:32:13;8.30;;;4.97;;
12348;SDS011;5974;42.710;27.258;2023-04-25T04:34:40;6.70;;;4.80;;
12348;SDS011;5974;42.710;27.258;2023-04-25T04:37:07;8.33;;;6.03;;
12348;SDS011;5974;42.710;27.258;2023-04-25T04:39:35;9.07;;;8.17;;
12348;SDS011;5974;42.710;27.258;2023-04-25T04:42:02;10.33;;;9.20;;
12348;SDS011;5974;42.710;27.258;2023-04-25T04:44:30;11.60;;;9.83;;
12348;SDS011;5974;42.710;27.258;2023-04-25T04:46:59;10.43;;;9.23;;
12348;SDS011;5974;42.710;27.258;2023-04-25T04:49:28;13.27;;;9.90;;
12348;SDS011;5974;42.710;27.258;2023-04-25T04:51:55;8.67;;;7.83;;
12348;SDS011;5974;42.710;27.258;2023-04-25T04:54:22;8.17;;;7.00;;
12348;SDS011;5974;42.710;27.258;2023-04-25T04:56:48;8.53;;;6.13;;
12348;SDS011;5974;42.710;27.258;2023-04-25T04:59:16;7.40;;;5.37;;
12348;SDS011;5974;42.710;27.258;2023-04-25T05:01:43;5.90;;;5.30;;
12348;SDS011;5974;42.710;27.258;2023-04-25T05:04:11;8.90;;;5.43;;
12348;SDS011;5974;42.710;27.258;2023-04-25T05:06:39;8.30;;;5.67;;
12348;SDS011;5974;42.710;27.258;2023-04-25T05:09:06;9.40;;;5.97;;
12348;SDS011;5974;42.710;27.258;2023-04-25T05:11:33;9.10;;;7.07;;
12348;SDS011;5974;42.710;27.258;2023-04-25T05:14:00;9.40;;;6.53;;
12348;SDS011;5974;42.710;27.258;2023-04-25T05:16:26;12.30;;;6.23;;
12348;SDS011;5974;42.710;27.258;2023-04-25T05:18:53;8.77;;;6.50;;
12348;SDS011;5974;42.710;27.258;2023-04-25T05:21:20;11.03;;;6.53;;
12348;SDS011;5974;42.710;27.258;2023-04-25T05:23:48;8.10;;;6.70;;
12348;SDS011;5974;42.710;27.258;2023-04-25T05:26:15;14.87;;;7.33;;
12348;SDS011;5974;42.710;27.258;2023-04-25T05:28:42;12.10;;;6.80;;
12348;SDS011;5974;42.710;27.258;2023-04-25T05:31:09;11.37;;;7.20;;
12348;SDS011;5974;42.710;27.258;2023-04-25T05:33:36;9.30;;;6.33;;
12348;SDS011;5974;42.710;27.258;2023-04-25T05:36:04;9.13;;;6.27;;
12348;SDS011;5974;42.710;27.258;2023-04-25T05:38:31;9.13;;;5.77;;
12348;SDS011;5974;42.710;27.258;2023-04-25T05:40:59;12.87;;;5.30;;
12348;SDS011;5974;42.710;27.258;2023-04-25T05:43:26;7.43;;;4.87;;
12348;SDS011;5974;42.710;27.258;2023-04-25T05:45:53;8.53;;;4.57;;
12348;SDS011;5974;42.710;27.258;2023-04-25T05:48:20;8.83;;;5.53;;
12348;SDS011;5974;42.710;27.258;2023-04-25T05:50:47;12.17;;;5.50;;
12348;SDS011;5974;42.710;27.258;2023-04-25T05:53:14;11.70;;;6.07;;
12348;SDS011;5974;42.710;27.258;2023-04-25T05:55:41;9.93;;;6.77;;
12348;SDS011;5974;42.710;27.258;2023-04-25T05:58:09;10.17;;;6.83;;
12348;SDS011;5974;42.710;27.258;2023-04-25T06:00:36;13.57;;;7.10;;
12348;SDS011;5974;42.710;27.258;2023-04-25T06:03:03;12.57;;;6.37;;
12348;SDS011;5974;42.710;27.258;2023-04-25T06:05:32;9.77;;;6.47;;
12348;SDS011;5974;42.710;27.258;2023-04-25T06:07:59;7.43;;;5.27;;
12348;SDS011;5974;42.710;27.258;2023-04-25T06:10:26;9.63;;;5.10;;
12348;SDS011;5974;42.710;27.258;2023-04-25T06:12:53;7.23;;;5.60;;
12348;SDS011;5974;42.710;27.258;2023-04-25T06:15:22;8.27;;;5.50;;
12348;SDS011;5974;42.710;27.258;2023-04-25T06:17:49;12.77;;;5.37;;
12348;SDS011;5974;42.710;27.258;2023-04-25T06:20:16;9.87;;;5.47;;
12348;SDS011;5974;42.710;27.258;2023-04-25T06:22:43;8.80;;;5.40;;
12348;SDS011;5974;42.710;27.258;2023-04-25T06:25:09;13.13;;;5.80;;
12348;SDS011;5974;42.710;27.258;2023-04-25T06:27:36;8.13;;;5.23;;
12348;SDS011;5974;42.710;27.258;2023-04-25T06:30:03;7.37;;;4.97;;
12348;SDS011;5974;42.710;27.258;2023-04-25T06:32:32;8.40;;;5.50;;
12348;SDS011;5974;42.710;27.258;2023-04-25T06:34:59;6.67;;;5.53;;
12348;SDS011;5974;42.710;27.258;2023-04-25T06:37:26;8.93;;;5.53;;
12348;SDS011;5974;42.710;27.258;2023-04-25T06:39:53;13.30;;;6.17;;
12348;SDS011;5974;42.710;27.258;2023-04-25T06:42:20;8.37;;;4.83;;
12348;SDS011;5974;42.710;27.258;2023-04-25T06:44:46;7.93;;;5.90;;
12348;SDS011;5974;42.710;27.258;2023-04-25T06:47:13;8.73;;;5.03;;
12348;SDS011;5974;42.710;27.258;2023-04-25T06:49:41;5.77;;;5.13;;
12348;SDS011;5974;42.710;27.258;2023-04-25T06:52:08;10.30;;;5.60;;
12348;SDS011;5974;42.710;27.258;2023-04-25T06:54:35;9.83;;;5.70;;
12348;SDS011;5974;42.710;27.258;2023-04-25T06:57:02;8.83;;;5.37;;
12348;SDS011;5974;42.710;27.258;2023-04-25T06:59:29;8.97;;;6.07;;
12348;SDS011;5974;42.710;27.258;2023-04-25T07:01:56;9.67;;;6.47;;
12348;SDS011;5974;42.710;27.258;2023-04-25T07:04:23;14.10;;;6.13;;
12348;SDS011;5974;42.710;27.258;2023-04-25T07:06:51;10.93;;;6.63;;
12348;SDS011;5974;42.710;27.258;2023-04-25T07:09:18;10.70;;;6.30;;
12348;SDS011;5974;42.710;27.258;2023-04-25T07:11:45;8.90;;;5.80;;
12348;SDS011;5974;42.710;27.258;2023-04-25T07:14:12;6.40;;;5.80;;
12348;SDS011;5974;42.710;27.258;2023-04-25T07:16:39;9.63;;;6.40;;
12348;SDS011;5974;42.710;27.258;2023-04-25T07:19:06;9.23;;;5.90;;
12348;SDS011;5974;42.710;27.258;2023-04-25T07:21:32;9.20;;;6.37;;
12348;SDS011;5974;42.710;27.258;2023-04-25T07:24:03;7.53;;;5.80;;
12348;SDS011;5974;42.710;27.258;2023-04-25T07:26:30;7.97;;;5.87;;
12348;SDS011;5974;42.710;27.258;2023-04-25T07:28:57;5.77;;;5.27;;
12348;SDS011;5974;42.710;27.258;2023-04-25T07:31:23;8.60;;;6.03;;
12348;SDS011;5974;42.710;27.258;2023-04-25T07:33:50;6.20;;;5.50;;
12348;SDS011;5974;42.710;27.258;2023-04-25T07:36:17;9.23;;;5.60;;
12348;SDS011;5974;42.710;27.258;2023-04-25T07:38:44;6.60;;;5.77;;
12348;SDS011;5974;42.710;27.258;2023-04-25T07:41:13;6.63;;;5.67;;
12348;SDS011;5974;42.710;27.258;2023-04-25T07:43:39;7.97;;;5.20;;
12348;SDS011;5974;42.710;27.258;2023-04-25T07:46:06;6.87;;;5.67;;
12348;SDS011;5974;42.710;27.258;2023-04-25T07:48:33;5.80;;;5.30;;
12348;SDS011;5974;42.710;27.258;2023-04-25T07:51:00;9.97;;;5.93;;
12348;SDS011;5974;42.710;27.258;2023-04-25T07:53:29;7.97;;;5.90;;
12348;SDS011;5974;42.710;27.258;2023-04-25T07:55:57;9.50;;;6.00;;
12348;SDS011;5974;42.710;27.258;2023-04-25T07:58:25;9.97;;;6.40;;
12348;SDS011;5974;42.710;27.258;2023-04-25T08:00:52;9.00;;;4.90;;
12348;SDS011;5974;42.710;27.258;2023-04-25T08:03:19;5.07;;;4.50;;
12348;SDS011;5974;42.710;27.258;2023-04-25T08:05:46;8.60;;;5.20;;
12348;SDS011;5974;42.710;27.258;2023-04-25T08:08:13;4.47;;;4.07;;
12348;SDS011;5974;42.710;27.258;2023-04-25T08:10:40;4.47;;;3.63;;
12348;SDS011;5974;42.710;27.258;2023-04-25T08:13:07;5.70;;;4.50;;
12348;SDS011;5974;42.710;27.258;2023-04-25T08:15:35;5.87;;;4.57;;
12348;SDS011;5974;42.710;27.258;2023-04-25T08:18:02;5.67;;;4.30;;
12348;SDS011;5974;42.710;27.258;2023-04-25T08:20:29;7.00;;;4.30;;
12348;SDS011;5974;42.710;27.258;2023-04-25T08:22:56;4.60;;;3.90;;
12348;SDS011;5974;42.710;27.258;2023-04-25T08:25:23;4.80;;;4.40;;
12348;SDS011;5974;42.710;27.258;2023-04-25T08:27:49;4.70;;;4.27;;
12348;SDS011;5974;42.710;27.258;2023-04-25T08:30:16;4.63;;;4.23;;
12348;SDS011;5974;42.710;27.258;2023-04-25T08:32:44;4.57;;;4.17;;
12348;SDS011;5974;42.710;27.258;2023-04-25T08:35:11;9.47;;;4.07;;
12348;SDS011;5974;42.710;27.258;2023-04-25T08:37:38;4.13;;;3.83;;
12348;SDS011;5974;42.710;27.258;2023-04-25T08:40:05;5.37;;;3.77;;
12348;SDS011;5974;42.710;27.258;2023-04-25T08:42:36;8.80;;;4.13;;
12348;SDS011;5974;42.710;27.258;2023-04-25T08:45:04;6.77;;;3.83;;
12348;SDS011;5974;42.710;27.258;2023-04-25T08:47:32;3.57;;;3.30;;
12348;SDS011;5974;42.710;27.258;2023-04-25T08:50:03;4.00;;;3.70;;
12348;SDS011;5974;42.710;27.258;2023-04-25T08:52:34;3.73;;;3.40;;
12348;SDS011;5974;42.710;27.258;2023-04-25T08:55:03;5.27;;;3.73;;
12348;SDS011;5974;42.710;27.258;2023-04-25T08:57:33;3.40;;;3.10;;
12348;SDS011;5974;42.710;27.258;2023-04-25T09:00:01;4.67;;;3.10;;
12348;SDS011;5974;42.710;27.258;2023-04-25T09:02:30;7.27;;;3.30;;
12348;SDS011;5974;42.710;27.258;2023-04-25T09:04:57;3.87;;;3.40;;
12348;SDS011;5974;42.710;27.258;2023-04-25T09:07:26;3.43;;;3.13;;
12348;SDS011;5974;42.710;27.258;2023-04-25T09:09:53;3.70;;;3.40;;
12348;SDS011;5974;42.710;27.258;2023-04-25T09:12:20;4.37;;;3.33;;
12348;SDS011;5974;42.710;27.258;2023-04-25T09:15:00;4.80;;;3.20;;
12348;SDS011;5974;42.710;27.258;2023-04-25T09:17:29;3.77;;;3.17;;
12348;SDS011;5974;42.710;27.258;2023-04-25T09:19:57;4.73;;;3.27;;
12348;SDS011;5974;42.710;27.258;2023-04-25T09:22:34;4.90;;;3.20;;
12348;SDS011;5974;42.710;27.258;2023-04-25T09:25:02;5.13;;;3.57;;
12348;SDS011;5974;42.710;27.258;2023-04-25T09:27:30;3.93;;;3.00;;
12348;SDS011;5974;42.710;27.258;2023-04-25T09:29:57;7.90;;;3.73;;
12348;SDS011;5974;42.710;27.258;2023-04-25T09:32:25;4.00;;;3.20;;
12348;SDS011;5974;42.710;27.258;2023-04-25T09:34:53;3.53;;;2.87;;
12348;SDS011;5974;42.710;27.258;2023-04-25T09:37:21;6.63;;;3.40;;
12348;SDS011;5974;42.710;27.258;2023-04-25T09:39:53;3.83;;;3.47;;
12348;SDS011;5974;42.710;27.258;2023-04-25T09:42:22;5.77;;;3.20;;
12348;SDS011;5974;42.710;27.258;2023-04-25T09:44:51;6.10;;;5.37;;
12348;SDS011;5974;42.710;27.258;2023-04-25T09:47:18;6.17;;;5.30;;
12348;SDS011;5974;42.710;27.258;2023-04-25T09:49:48;18.93;;;16.87;;
12348;SDS011;5974;42.710;27.258;2023-04-25T09:52:15;6.23;;;5.63;;
12348;SDS011;5974;42.710;27.258;2023-04-25T09:54:43;3.40;;;3.10;;
12348;SDS011;5974;42.710;27.258;2023-04-25T09:57:12;4.80;;;4.40;;
12348;SDS011;5974;42.710;27.258;2023-04-25T09:59:42;3.60;;;3.30;;
12348;SDS011;5974;42.710;27.258;2023-04-25T10:02:11;3.43;;;2.90;;
12348;SDS011;5974;42.710;27.258;2023-04-25T10:04:39;4.33;;;3.10;;
12348;SDS011;5974;42.710;27.258;2023-04-25T10:07:08;3.33;;;2.40;;
12348;SDS011;5974;42.710;27.258;2023-04-25T10:09:36;2.57;;;2.37;;
12348;SDS011;5974;42.710;27.258;2023-04-25T10:12:04;2.83;;;2.57;;
12348;SDS011;5974;42.710;27.258;2023-04-25T10:14:34;5.30;;;2.43;;
12348;SDS011;5974;42.710;27.258;2023-04-25T10:17:01;2.60;;;2.40;;
12348;SDS011;5974;42.710;27.258;2023-04-25T10:19:28;2.70;;;2.50;;
12348;SDS011;5974;42.710;27.258;2023-04-25T10:21:58;2.87;;;2.57;;
12348;SDS011;5974;42.710;27.258;2023-04-25T10:24:30;3.70;;;2.53;;
12348;SDS011;5974;42.710;27.258;2023-04-25T10:26:57;2.77;;;2.33;;
12348;SDS011;5974;42.710;27.258;2023-04-25T10:29:25;2.63;;;2.43;;
12348;SDS011;5974;42.710;27.258;2023-04-25T10:31:54;3.03;;;2.77;;
12348;SDS011;5974;42.710;27.258;2023-04-25T10:34:23;3.77;;;3.20;;
12348;SDS011;5974;42.710;27.258;2023-04-25T10:37:03;4.23;;;2.50;;
12348;SDS011;5974;42.710;27.258;2023-04-25T10:39:30;3.90;;;2.90;;
12348;SDS011;5974;42.710;27.258;2023-04-25T10:41:59;3.00;;;2.70;;
12348;SDS011;5974;42.710;27.258;2023-04-25T10:44:28;5.73;;;2.63;;
12348;SDS011;5974;42.710;27.258;2023-04-25T10:46:57;3.97;;;3.23;;
12348;SDS011;5974;42.710;27.258;2023-04-25T10:49:29;3.50;;;2.80;;
12348;SDS011;5974;42.710;27.258;2023-04-25T10:52:13;3.10;;;2.80;;
12348;SDS011;5974;42.710;27.258;2023-04-25T10:54:47;3.07;;;2.53;;
12348;SDS011;5974;42.710;27.258;2023-04-25T10:57:28;2.37;;;2.17;;
12348;SDS011;5974;42.710;27.258;2023-04-25T10:59:58;2.93;;;2.40;;
12348;SDS011;5974;42.710;27.258;2023-04-25T11:02:27;2.77;;;2.30;;
12348;SDS011;5974;42.710;27.258;2023-04-25T11:04:56;3.93;;;2.73;;
12348;SDS011;5974;42.710;27.258;2023-04-25T11:07:25;2.70;;;2.33;;
12348;SDS011;5974;42.710;27.258;2023-04-25T11:10:01;2.60;;;2.40;;
12348;SDS011;5974;42.710;27.258;2023-04-25T11:12:29;3.03;;;2.70;;
12348;SDS011;5974;42.710;27.258;2023-04-25T11:15:00;3.67;;;2.23;;
12348;SDS011;5974;42.710;27.258;2023-04-25T11:17:29;3.40;;;3.07;;
12348;SDS011;5974;42.710;27.258;2023-04-25T11:19:56;2.77;;;2.57;;
12348;SDS011;5974;42.710;27.258;2023-04-25T11:22:23;5.17;;;2.60;;
12348;SDS011;5974;42.710;27.258;2023-04-25T11:24:50;4.47;;;2.50;;
12348;SDS011;5974;42.710;27.258;2023-04-25T11:27:17;2.57;;;2.37;;
12348;SDS011;5974;42.710;27.258;2023-04-25T11:29:44;3.23;;;2.53;;
12348;SDS011;5974;42.710;27.258;2023-04-25T11:32:13;3.53;;;2.57;;
12348;SDS011;5974;42.710;27.258;2023-04-25T11:34:43;5.50;;;2.63;;
12348;SDS011;5974;42.710;27.258;2023-04-25T11:37:11;2.70;;;2.50;;
12348;SDS011;5974;42.710;27.258;2023-04-25T11:39:39;2.30;;;2.03;;
12348;SDS011;5974;42.710;27.258;2023-04-25T11:42:09;2.40;;;2.20;;
12348;SDS011;5974;42.710;27.258;2023-04-25T11:44:37;2.27;;;2.17;;
12348;SDS011;5974;42.710;27.258;2023-04-25T11:47:04;3.00;;;2.70;;
12348;SDS011;5974;42.710;27.258;2023-04-25T11:49:31;5.73;;;4.40;;
12348;SDS011;5974;42.710;27.258;2023-04-25T11:51:59;2.70;;;2.50;;
12348;SDS011;5974;42.710;27.258;2023-04-25T11:54:26;4.40;;;3.30;;
12348;SDS011;5974;42.710;27.258;2023-04-25T11:56:53;4.03;;;3.53;;
12348;SDS011;5974;42.710;27.258;2023-04-25T11:59:22;4.67;;;3.97;;
12348;SDS011;5974;42.710;27.258;2023-04-25T12:01:51;6.30;;;4.13;;
12348;SDS011;5974;42.710;27.258;2023-04-25T12:04:19;8.37;;;5.00;;
12348;SDS011;5974;42.710;27.258;2023-04-25T12:06:48;6.27;;;4.77;;
12348;SDS011;5974;42.710;27.258;2023-04-25T12:09:18;5.80;;;4.20;;
12348;SDS011;5974;42.710;27.258;2023-04-25T12:11:46;4.40;;;3.37;;
12348;SDS011;5974;42.710;27.258;2023-04-25T12:14:20;6.50;;;4.00;;
12348;SDS011;5974;42.710;27.258;2023-04-25T12:16:49;4.20;;;3.60;;
12348;SDS011;5974;42.710;27.258;2023-04-25T12:19:17;4.00;;;3.57;;
12348;SDS011;5974;42.710;27.258;2023-04-25T12:21:45;4.90;;;3.53;;
12348;SDS011;5974;42.710;27.258;2023-04-25T12:24:13;6.33;;;3.90;;
12348;SDS011;5974;42.710;27.258;2023-04-25T12:26:49;3.50;;;3.00;;
12348;SDS011;5974;42.710;27.258;2023-04-25T12:29:19;3.73;;;3.17;;
12348;SDS011;5974;42.710;27.258;2023-04-25T12:31:47;5.47;;;3.70;;
12348;SDS011;5974;42.710;27.258;2023-04-25T12:34:14;3.60;;;3.30;;
12348;SDS011;5974;42.710;27.258;2023-04-25T12:36:41;6.27;;;2.97;;
12348;SDS011;5974;42.710;27.258;2023-04-25T12:39:08;4.40;;;2.70;;
12348;SDS011;5974;42.710;27.258;2023-04-25T12:41:35;3.30;;;2.93;;
12348;SDS011;5974;42.710;27.258;2023-04-25T12:44:04;2.80;;;2.60;;
12348;SDS011;5974;42.710;27.258;2023-04-25T12:46:30;3.57;;;3.27;;
12348;SDS011;5974;42.710;27.258;2023-04-25T12:48:57;3.70;;;3.13;;
12348;SDS011;5974;42.710;27.258;2023-04-25T12:51:25;4.40;;;3.50;;
12348;SDS011;5974;42.710;27.258;2023-04-25T12:53:53;7.33;;;3.47;;
12348;SDS011;5974;42.710;27.258;2023-04-25T12:56:19;5.40;;;3.83;;
12348;SDS011;5974;42.710;27.258;2023-04-25T12:58:46;5.27;;;3.83;;
12348;SDS011;5974;42.710;27.258;2023-04-25T13:01:15;4.30;;;3.90;;
12348;SDS011;5974;42.710;27.258;2023-04-25T13:03:42;4.70;;;4.30;;
12348;SDS011;5974;42.710;27.258;2023-04-25T13:06:09;5.57;;;4.70;;
12348;SDS011;5974;42.710;27.258;2023-04-25T13:08:37;4.57;;;3.90;;
12348;SDS011;5974;42.710;27.258;2023-04-25T13:11:04;4.50;;;4.10;;
12348;SDS011;5974;42.710;27.258;2023-04-25T13:13:32;5.40;;;4.50;;
12348;SDS011;5974;42.710;27.258;2023-04-25T13:15:59;4.17;;;3.77;;
12348;SDS011;5974;42.710;27.258;2023-04-25T13:18:28;5.00;;;4.53;;
12348;SDS011;5974;42.710;27.258;2023-04-25T13:20:55;5.10;;;4.43;;
12348;SDS011;5974;42.710;27.258;2023-04-25T13:23:23;4.87;;;4.00;;
12348;SDS011;5974;42.710;27.258;2023-04-25T13:25:51;4.67;;;3.87;;
12348;SDS011;5974;42.710;27.258;2023-04-25T13:28:18;4.27;;;3.87;;
12348;SDS011;5974;42.710;27.258;2023-04-25T13:30:45;5.57;;;4.30;;
12348;SDS011;5974;42.710;27.258;2023-04-25T13:33:13;5.97;;;4.27;;
12348;SDS011;5974;42.710;27.258;2023-04-25T13:35:41;4.50;;;4.03;;
12348;SDS011;5974;42.710;27.258;2023-04-25T13:38:11;4.70;;;4.20;;
12348;SDS011;5974;42.710;27.258;2023-04-25T13:40:38;4.30;;;3.97;;
12348;SDS011;5974;42.710;27.258;2023-04-25T13:43:05;4.17;;;3.57;;
12348;SDS011;5974;42.710;27.258;2023-04-25T13:45:32;6.93;;;4.53;;
12348;SDS011;5974;42.710;27.258;2023-04-25T13:47:59;6.07;;;4.20;;
12348;SDS011;5974;42.710;27.258;2023-04-25T13:50:26;5.27;;;4.07;;
12348;SDS011;5974;42.710;27.258;2023-04-25T13:52:54;5.93;;;4.30;;
12348;SDS011;5974;42.710;27.258;2023-04-25T13:55:22;5.27;;;2.93;;
12348;SDS011;5974;42.710;27.258;2023-04-25T13:57:48;17.90;;;4.97;;
12348;SDS011;5974;42.710;27.258;2023-04-25T14:00:15;15.17;;;6.73;;
12348;SDS011;5974;42.710;27.258;2023-04-25T14:02:43;6.73;;;3.20;;
12348;SDS011;5974;42.710;27.258;2023-04-25T14:05:10;6.30;;;3.10;;
12348;SDS011;5974;42.710;27.258;2023-04-25T14:07:38;5.90;;;3.20;;
12348;SDS011;5974;42.710;27.258;2023-04-25T14:10:06;5.20;;;3.70;;
12348;SDS011;5974;42.710;27.258;2023-04-25T14:12:34;8.60;;;4.20;;
12348;SDS011;5974;42.710;27.258;2023-04-25T14:15:01;3.13;;;2.83;;
12348;SDS011;5974;42.710;27.258;2023-04-25T14:17:28;4.60;;;2.93;;
12348;SDS011;5974;42.710;27.258;2023-04-25T14:19:55;2.57;;;1.93;;
12348;SDS011;5974;42.710;27.258;2023-04-25T14:22:21;3.30;;;1.83;;
12348;SDS011;5974;42.710;27.258;2023-04-25T14:24:48;3.70;;;2.10;;
12348;SDS011;5974;42.710;27.258;2023-04-25T14:27:16;2.13;;;2.03;;
12348;SDS011;5974;42.710;27.258;2023-04-25T14:29:43;5.87;;;2.90;;
12348;SDS011;5974;42.710;27.258;2023-04-25T14:32:11;2.07;;;1.97;;
12348;SDS011;5974;42.710;27.258;2023-04-25T14:34:38;8.13;;;2.30;;
12348;SDS011;5974;42.710;27.258;2023-04-25T14:37:05;2.23;;;2.03;;
12348;SDS011;5974;42.710;27.258;2023-04-25T14:39:32;1.70;;;1.60;;
12348;SDS011;5974;42.710;27.258;2023-04-25T14:41:59;2.60;;;1.97;;
12348;SDS011;5974;42.710;27.258;2023-04-25T14:44:27;2.27;;;1.80;;
12348;SDS011;5974;42.710;27.258;2023-04-25T14:46:54;2.37;;;2.17;;
12348;SDS011;5974;42.710;27.258;2023-04-25T14:49:21;4.20;;;3.80;;